Time;durP1;ratioP1;P1;durP2;ratioP2;P2;SDS_P1;SDS_P2;PMS_P1;PMS_P2;Temp;Humidity;BMP_temperature;BMP_pressure;BME280_temperature;BME280_humidity;BME280_pressure;Samples;Min_cycle;Max_cycle;Signal;HPM_P1;HPM_P2
2023/05/17 00:00:11;;;;;;;5.33;2.87;;;10.10;99.90;;;10.80;100.00;98692.53;4923211;29;20529;-82
2023/05/17 00:02:40;;;;;;;6.63;2.30;;;10.00;99.90;;;10.76;100.00;98699.91;4922795;29;21260;-80
2023/05/17 00:05:10;;;;;;;4.27;2.30;;;10.00;99.90;;;10.73;100.00;98705.50;4923745;29;20961;-80
2023/05/17 00:07:39;;;;;;;4.53;2.20;;;9.90;99.90;;;10.68;100.00;98701.78;4925914;29;20474;-80
2023/05/17 00:10:10;;;;;;;5.13;2.63;;;9.90;99.90;;;10.65;100.00;98707.34;4922584;29;20467;-80
2023/05/17 00:12:39;;;;;;;7.37;2.47;;;9.90;99.90;;;10.59;100.00;98709.66;4923708;29;20471;-80
2023/05/17 00:15:10;;;;;;;4.27;2.03;;;9.80;99.90;;;10.55;100.00;98715.41;4924197;29;20626;-80
2023/05/17 00:17:38;;;;;;;11.40;2.20;;;9.80;99.90;;;10.51;100.00;98712.31;4924531;29;20462;-80
2023/05/17 00:20:08;;;;;;;2.37;1.70;;;9.70;99.90;;;10.47;100.00;98705.78;4923943;29;20481;-81
2023/05/17 00:22:37;;;;;;;14.73;1.77;;;9.70;99.90;;;10.43;100.00;98709.72;4921449;29;20470;-80
2023/05/17 00:25:08;;;;;;;5.40;1.70;;;9.70;99.90;;;10.38;100.00;98712.00;4923458;29;21156;-80
2023/05/17 00:27:36;;;;;;;9.30;3.20;;;9.60;99.90;;;10.35;100.00;98712.34;4924905;29;20478;-80
2023/05/17 00:30:07;;;;;;;7.13;1.90;;;9.60;99.90;;;10.31;100.00;98710.28;4921069;29;20490;-80
2023/05/17 00:32:37;;;;;;;4.97;1.90;;;9.50;99.90;;;10.26;100.00;98713.38;4926740;29;20469;-80
2023/05/17 00:35:07;;;;;;;7.93;1.80;;;9.50;99.90;;;10.22;100.00;98709.47;4923714;29;20582;-80
2023/05/17 00:37:36;;;;;;;4.40;1.80;;;9.50;99.90;;;10.20;100.00;98715.84;4923468;29;20467;-80
2023/05/17 00:40:06;;;;;;;3.87;1.77;;;9.40;99.90;;;10.16;100.00;98718.00;4924010;29;20470;-80
2023/05/17 00:42:35;;;;;;;4.20;1.80;;;9.40;99.90;;;10.13;100.00;98718.28;4906755;29;20478;-80
2023/05/17 00:45:06;;;;;;;4.53;1.97;;;9.30;99.90;;;10.09;100.00;98717.00;4922666;29;20478;-80
2023/05/17 00:47:35;;;;;;;3.33;2.00;;;9.30;99.90;;;10.06;100.00;98712.94;4924994;29;20466;-81
2023/05/17 00:50:07;;;;;;;2.70;1.57;;;9.30;99.90;;;10.03;100.00;98721.06;4927786;29;20458;-80
2023/05/17 00:52:36;;;;;;;8.90;1.87;;;9.30;99.90;;;10.04;100.00;98724.50;4924756;29;20481;-80
2023/05/17 00:55:06;;;;;;;2.33;1.40;;;9.30;99.90;;;9.96;100.00;98717.50;4921720;29;20498;-80
2023/05/17 00:57:36;;;;;;;4.73;1.80;;;9.20;99.90;;;9.94;100.00;98723.88;4922022;29;20530;-80
2023/05/17 01:00:07;;;;;;;9.37;1.80;;;9.20;99.90;;;9.89;100.00;98721.75;4922409;29;20487;-80
2023/05/17 01:02:36;;;;;;;3.60;1.90;;;9.20;99.90;;;9.82;100.00;98720.00;4920887;29;20466;-80
2023/05/17 01:05:07;;;;;;;3.80;1.50;;;9.10;99.90;;;9.80;100.00;98711.50;4924343;29;20977;-80
2023/05/17 01:07:36;;;;;;;3.10;1.70;;;9.10;99.90;;;9.77;100.00;98717.03;4924511;29;20582;-80
2023/05/17 01:10:06;;;;;;;5.97;1.70;;;9.00;99.90;;;9.74;100.00;98720.00;4923749;29;20462;-80
2023/05/17 01:12:55;;;;;;;4.23;1.87;;;9.00;99.90;;;9.72;100.00;98721.97;4923198;29;20533;-80
2023/05/17 01:15:31;;;;;;;6.40;1.97;;;9.00;99.90;;;9.68;100.00;98723.28;4923282;29;20494;-80
2023/05/17 01:18:14;;;;;;;2.93;1.87;;;8.90;99.90;;;9.64;100.00;98720.16;4924391;29;20470;-80
2023/05/17 01:20:47;;;;;;;3.60;1.40;;;8.90;99.90;;;9.59;100.00;98725.88;4924618;29;21032;-80
2023/05/17 01:23:45;;;;;;;3.77;2.10;;;8.90;99.90;;;9.57;100.00;98721.81;4921600;29;20473;-80
2023/05/17 01:26:20;;;;;;;2.90;1.67;;;8.80;99.90;;;9.54;100.00;98735.19;4922936;29;20499;-81
2023/05/17 01:28:56;;;;;;;2.70;1.83;;;8.80;99.90;;;9.46;100.00;98729.97;4921462;29;20493;-80
2023/05/17 01:31:27;;;;;;;3.07;1.43;;;8.80;99.90;;;9.41;100.00;98722.59;4922616;29;20483;-80
2023/05/17 01:33:57;;;;;;;2.83;2.07;;;8.70;99.90;;;9.39;100.00;98732.41;4922737;29;20880;-80
2023/05/17 01:36:26;;;;;;;10.73;2.43;;;8.70;99.90;;;9.38;100.00;98727.34;4923351;29;20966;-80
2023/05/17 01:38:55;;;;;;;2.70;1.73;;;8.60;99.90;;;9.35;100.00;98727.66;4921157;29;20470;-80
2023/05/17 01:41:33;;;;;;;7.03;1.90;;;8.60;99.90;;;9.33;100.00;98730.44;4921794;29;20475;-80
2023/05/17 01:44:17;;;;;;;3.20;1.70;;;8.70;99.90;;;9.29;100.00;98733.53;4922494;29;20474;-80
2023/05/17 01:46:46;;;;;;;5.40;1.63;;;8.60;99.90;;;9.26;100.00;98734.69;4922026;29;20466;-79
2023/05/17 01:49:24;;;;;;;3.50;1.97;;;8.60;99.90;;;9.22;100.00;98733.38;4919379;29;20565;-80
2023/05/17 01:52:03;;;;;;;3.43;1.90;;;8.50;99.90;;;9.24;100.00;98736.63;4923866;29;20462;-80
2023/05/17 01:54:43;;;;;;;3.70;1.60;;;8.50;99.90;;;9.22;100.00;98737.75;4922685;29;20556;-79
2023/05/17 01:57:15;;;;;;;2.60;1.70;;;8.50;99.90;;;9.16;100.00;98734.03;4921179;29;20588;-80
2023/05/17 01:59:49;;;;;;;2.67;2.00;;;8.50;99.90;;;9.10;100.00;98732.03;4922793;29;20471;-80
2023/05/17 02:02:21;;;;;;;6.73;1.60;;;8.40;99.90;;;9.07;100.00;98727.13;4920777;29;20466;-80
2023/05/17 02:04:50;;;;;;;1.77;1.53;;;8.40;99.90;;;9.07;100.00;98740.19;4921924;29;20471;-80
2023/05/17 02:07:19;;;;;;;3.17;1.70;;;8.30;99.90;;;9.06;100.00;98738.53;4920624;29;20510;-80
2023/05/17 02:09:47;;;;;;;2.80;1.60;;;8.40;99.90;;;9.00;100.00;98740.00;4924907;29;20473;-80
2023/05/17 02:12:16;;;;;;;7.03;2.40;;;8.30;99.90;;;9.00;100.00;98736.56;4927196;29;20533;-81
2023/05/17 02:14:46;;;;;;;4.03;1.80;;;8.30;99.90;;;8.98;100.00;98741.16;4924505;29;20709;-80
2023/05/17 02:17:16;;;;;;;4.30;1.80;;;8.30;99.90;;;8.96;100.00;98737.88;4920706;29;20502;-80
2023/05/17 02:19:45;;;;;;;4.17;1.70;;;8.20;99.90;;;8.95;100.00;98741.47;4903181;29;20654;-80
2023/05/17 02:22:13;;;;;;;5.37;1.83;;;8.20;99.90;;;8.95;100.00;98746.69;4919433;29;20874;-80
2023/05/17 02:24:42;;;;;;;4.30;1.63;;;8.20;99.90;;;8.95;100.00;98744.91;4916445;29;20559;-80
2023/05/17 02:27:11;;;;;;;3.70;1.93;;;8.20;99.90;;;8.94;100.00;98739.84;4919373;29;21025;-80
2023/05/17 02:29:40;;;;;;;2.60;1.87;;;8.00;99.90;;;8.92;100.00;98753.03;4920997;29;20490;-80
2023/05/17 02:32:11;;;;;;;6.83;1.83;;;8.20;99.90;;;8.88;100.00;98756.94;4920569;29;20478;-80
2023/05/17 02:34:39;;;;;;;3.17;1.87;;;8.20;99.90;;;8.85;100.00;98754.63;4917400;29;20467;-80
2023/05/17 02:37:08;;;;;;;8.53;1.70;;;8.20;99.90;;;8.80;100.00;98756.91;4916974;29;20498;-80
2023/05/17 02:39:36;;;;;;;4.30;2.10;;;8.20;99.90;;;8.76;100.00;98767.81;4917026;29;21176;-80
2023/05/17 02:42:06;;;;;;;2.50;1.70;;;8.10;99.90;;;8.76;100.00;98766.03;4920671;29;20482;-80
2023/05/17 02:44:35;;;;;;;2.93;1.77;;;8.10;99.90;;;8.74;100.00;98769.75;4922574;29;20518;-80
2023/05/17 02:47:04;;;;;;;4.43;1.70;;;8.10;99.90;;;8.73;100.00;98773.34;4920587;29;20544;-80
2023/05/17 02:49:35;;;;;;;7.57;1.87;;;8.00;99.90;;;8.72;100.00;98763.88;4920079;29;20479;-80
2023/05/17 02:52:05;;;;;;;4.03;2.10;;;8.00;99.90;;;8.70;100.00;98764.03;4921358;29;20847;-80
2023/05/17 02:54:33;;;;;;;3.43;1.70;;;8.00;99.90;;;8.68;100.00;98765.19;4921339;29;20834;-80
2023/05/17 02:57:03;;;;;;;4.20;1.77;;;8.00;99.90;;;8.66;100.00;98767.94;4923516;29;20507;-80
2023/05/17 02:59:32;;;;;;;4.73;2.07;;;8.00;99.90;;;8.65;100.00;98765.47;4924453;29;20965;-80
2023/05/17 03:02:01;;;;;;;28.47;10.83;;;7.90;99.90;;;8.64;100.00;98774.28;4923766;29;20501;-78
2023/05/17 03:04:29;;;;;;;7.83;3.37;;;7.90;99.90;;;8.63;100.00;98773.47;4924752;29;20474;-80
2023/05/17 03:07:00;;;;;;;4.40;2.17;;;7.90;99.90;;;8.61;100.00;98764.19;4925370;29;20885;-80
2023/05/17 03:09:29;;;;;;;8.97;2.27;;;7.80;99.90;;;8.61;100.00;98764.19;4922290;29;20530;-80
2023/05/17 03:11:58;;;;;;;6.70;2.60;;;7.80;99.90;;;8.63;100.00;98757.00;4921162;29;20509;-79
2023/05/17 03:14:28;;;;;;;3.03;2.40;;;7.80;99.90;;;8.64;100.00;98753.44;4923232;29;20467;-78
2023/05/17 03:16:57;;;;;;;5.50;3.00;;;7.90;99.90;;;8.65;100.00;98757.66;4919962;29;20502;-78
2023/05/17 03:19:26;;;;;;;9.90;2.33;;;7.90;99.90;;;8.64;100.00;98766.47;4919865;29;20478;-79
2023/05/17 03:21:55;;;;;;;4.90;3.10;;;7.90;99.90;;;8.63;100.00;98770.03;4924535;29;21030;-79
2023/05/17 03:24:26;;;;;;;5.27;2.50;;;7.90;99.90;;;8.64;100.00;98766.47;4922832;29;20478;-80
2023/05/17 03:26:55;;;;;;;5.87;2.73;;;7.90;99.90;;;8.63;100.00;98775.25;4920136;29;21269;-79
2023/05/17 03:29:24;;;;;;;10.90;2.60;;;7.90;99.90;;;8.63;100.00;98772.66;4921872;29;20494;-80
2023/05/17 03:31:53;;;;;;;5.20;2.40;;;7.90;99.90;;;8.61;100.00;98778.00;4916736;29;20470;-79
2023/05/17 03:34:22;;;;;;;3.63;2.40;;;7.90;99.90;;;8.62;100.00;98771.00;4923013;29;20454;-80
2023/05/17 03:36:51;;;;;;;3.20;2.30;;;7.90;99.90;;;8.61;100.00;98774.59;4924421;29;20549;-79
2023/05/17 03:39:20;;;;;;;3.10;2.20;;;7.80;99.90;;;8.60;100.00;98773.78;4926015;29;20467;-80
2023/05/17 03:41:51;;;;;;;4.93;2.30;;;7.90;99.90;;;8.56;100.00;98777.66;4926703;29;20470;-80
2023/05/17 03:44:22;;;;;;;8.83;2.10;;;7.80;99.90;;;8.54;100.00;98779.59;4927809;29;20478;-79
2023/05/17 03:46:51;;;;;;;7.97;2.17;;;7.80;99.90;;;8.54;100.00;98783.03;4926506;29;20876;-77
2023/05/17 03:49:20;;;;;;;6.43;3.37;;;7.80;99.90;;;8.54;100.00;98780.41;4924094;29;20553;-79
2023/05/17 03:51:49;;;;;;;4.10;2.50;;;7.80;99.90;;;8.54;100.00;98779.59;4924281;29;20961;-80
2023/05/17 03:54:19;;;;;;;3.33;2.20;;;7.80;99.90;;;8.53;100.00;98786.63;4923751;29;21379;-80
2023/05/17 03:56:49;;;;;;;6.00;2.60;;;7.80;99.90;;;8.54;100.00;98783.03;4924331;29;20506;-79
2023/05/17 03:59:18;;;;;;;11.77;3.27;;;7.80;99.90;;;8.50;100.00;98791.34;4925234;29;20491;-79
2023/05/17 04:01:48;;;;;;;5.10;2.30;;;7.80;99.90;;;8.48;100.00;98783.66;4927947;29;20461;-79
2023/05/17 04:04:17;;;;;;;12.13;2.40;;;7.80;99.90;;;8.46;100.00;98783.00;4926613;29;20478;-79
2023/05/17 04:06:46;;;;;;;4.77;2.20;;;7.80;99.90;;;8.47;100.00;98783.81;4927327;29;20887;-79
2023/05/17 04:09:16;;;;;;;6.93;2.40;;;7.70;99.90;;;8.46;100.00;98787.41;4921502;29;20521;-78
2023/05/17 04:11:44;;;;;;;7.33;2.70;;;7.80;99.90;;;8.47;100.00;98795.03;4922177;29;20556;-78
2023/05/17 04:14:13;;;;;;;6.37;2.30;;;7.80;99.90;;;8.46;100.00;98795.22;4922152;29;20474;-79
2023/05/17 04:16:44;;;;;;;4.20;2.30;;;7.80;99.90;;;8.45;100.00;98794.41;4923845;29;20869;-79
2023/05/17 04:19:14;;;;;;;9.73;2.40;;;7.70;99.90;;;8.45;100.00;98804.81;4923922;29;20471;-79
2023/05/17 04:21:45;;;;;;;10.73;2.77;;;7.70;99.90;;;8.44;100.00;98803.19;4923570;29;20518;-79
2023/05/17 04:24:14;;;;;;;4.00;2.97;;;7.70;99.90;;;8.44;100.00;98805.78;4921564;29;20466;-79
2023/05/17 04:26:43;;;;;;;10.03;2.90;;;7.70;99.90;;;8.44;100.00;98805.78;4923261;29;20991;-78
2023/05/17 04:29:13;;;;;;;7.23;3.03;;;7.70;99.90;;;8.44;100.00;98818.81;4923313;29;20498;-79
2023/05/17 04:31:45;;;;;;;8.90;2.77;;;7.70;99.90;;;8.43;100.00;98814.59;4921319;29;20978;-79
2023/05/17 04:34:15;;;;;;;7.70;2.07;;;7.80;99.90;;;8.42;100.00;98812.94;4928544;29;20467;-79
2023/05/17 04:36:44;;;;;;;7.30;2.97;;;7.70;99.90;;;8.41;100.00;98819.13;4928244;29;20537;-79
2023/05/17 04:39:13;;;;;;;18.13;3.00;;;7.70;99.90;;;8.44;100.00;98825.81;4928259;29;21005;-79
2023/05/17 04:41:42;;;;;;;11.33;2.80;;;7.70;99.90;;;8.45;100.00;98823.06;4926738;29;20470;-79
2023/05/17 04:44:10;;;;;;;10.17;3.03;;;7.70;99.90;;;8.48;100.00;98821.94;4928357;29;20803;-79
2023/05/17 04:46:40;;;;;;;7.50;2.83;;;7.70;99.90;;;8.49;100.00;98818.38;4928045;29;20472;-79
2023/05/17 04:49:11;;;;;;;6.87;3.13;;;7.80;99.90;;;8.51;100.00;98827.66;4926348;29;20493;-79
2023/05/17 04:51:41;;;;;;;11.60;3.20;;;7.80;99.90;;;8.55;100.00;98828.97;4927562;29;20485;-79
2023/05/17 04:54:09;;;;;;;6.50;3.27;;;7.80;99.90;;;8.55;100.00;98836.81;4928011;29;20467;-79
2023/05/17 04:56:39;;;;;;;4.87;2.50;;;7.80;99.90;;;8.60;100.00;98841.56;4928476;29;20468;-79
2023/05/17 04:59:09;;;;;;;7.10;2.63;;;7.80;99.90;;;8.62;100.00;98846.59;4927565;29;20489;-79
2023/05/17 05:01:38;;;;;;;7.73;3.00;;;7.90;99.90;;;8.66;100.00;98847.94;4927882;29;20842;-79
2023/05/17 05:04:07;;;;;;;6.97;3.03;;;7.90;99.90;;;8.68;100.00;98846.78;4927547;29;20462;-80
2023/05/17 05:06:37;;;;;;;6.43;2.80;;;8.00;99.90;;;8.70;100.00;98854.47;4928427;29;20479;-79
2023/05/17 05:09:06;;;;;;;5.70;2.60;;;8.00;99.90;;;8.74;100.00;98853.19;4927457;29;20470;-79
2023/05/17 05:11:35;;;;;;;10.80;3.87;;;8.00;99.90;;;8.77;100.00;98858.91;4926911;29;20474;-79
2023/05/17 05:14:04;;;;;;;8.33;3.07;;;8.10;99.90;;;8.81;100.00;98859.44;4928468;29;20462;-79
2023/05/17 05:16:33;;;;;;;5.00;2.40;;;8.10;99.90;;;8.86;100.00;98857.16;4927333;29;20989;-79
2023/05/17 05:19:02;;;;;;;13.00;4.40;;;8.20;99.90;;;8.91;100.00;98866.16;4926316;29;20521;-79
2023/05/17 05:21:32;;;;;;;11.23;2.90;;;8.20;99.90;;;8.94;100.00;98865.84;4927866;29;20466;-79
2023/05/17 05:24:03;;;;;;;6.23;2.83;;;8.30;99.90;;;8.99;100.00;98876.63;4925134;29;20578;-79
2023/05/17 05:26:32;;;;;;;9.23;2.60;;;8.30;99.90;;;9.02;100.00;98868.47;4928390;29;20883;-79
2023/05/17 05:29:00;;;;;;;9.60;3.30;;;8.40;99.90;;;9.05;100.00;98877.81;4927180;29;20526;-79
2023/05/17 05:31:30;;;;;;;10.97;3.10;;;8.30;99.90;;;9.12;100.00;98878.00;4927360;29;20470;-79
2023/05/17 05:33:58;;;;;;;5.63;3.57;;;8.40;99.90;;;9.15;100.00;98878.50;4927546;29;20481;-79
2023/05/17 05:36:27;;;;;;;9.33;2.97;;;8.50;99.90;;;9.20;100.00;98891.88;4926481;29;20487;-79
2023/05/17 05:38:56;;;;;;;5.63;3.10;;;8.50;99.90;;;9.25;100.00;98883.56;4927463;29;20510;-80
2023/05/17 05:41:26;;;;;;;8.73;3.47;;;8.60;99.90;;;9.31;100.00;98882.94;4926184;29;20493;-79
2023/05/17 05:43:55;;;;;;;8.43;3.53;;;8.60;99.90;;;9.36;100.00;98896.34;4927308;29;20471;-79
2023/05/17 05:46:24;;;;;;;11.60;4.10;;;8.70;99.90;;;9.40;100.00;98882.00;4926982;29;20470;-79
2023/05/17 05:48:53;;;;;;;5.60;3.20;;;8.70;99.90;;;9.46;100.00;98887.41;4927635;29;20474;-79
2023/05/17 05:51:21;;;;;;;18.03;4.63;;;8.80;99.90;;;9.50;100.00;98893.94;4925869;29;20510;-79
2023/05/17 05:53:50;;;;;;;14.13;3.80;;;8.80;99.90;;;9.58;100.00;98900.97;4926703;29;21072;-79
2023/05/17 05:56:18;;;;;;;11.80;3.90;;;8.90;99.90;;;9.54;100.00;98895.22;4926540;29;20470;-79
2023/05/17 05:58:49;;;;;;;11.53;4.07;;;8.80;99.90;;;9.62;100.00;98904.88;4925998;29;20561;-79
2023/05/17 06:01:17;;;;;;;17.43;4.40;;;9.00;99.90;;;9.64;100.00;98899.53;4925690;29;20553;-79
2023/05/17 06:03:46;;;;;;;8.17;3.80;;;9.00;99.90;;;9.67;100.00;98900.03;4926261;29;20506;-80
2023/05/17 06:06:18;;;;;;;7.93;3.87;;;9.00;99.90;;;9.72;100.00;98902.94;4926359;29;20475;-79
2023/05/17 06:08:49;;;;;;;14.77;5.10;;;9.00;99.90;;;9.76;100.00;98904.28;4927017;29;20550;-79
2023/05/17 06:11:19;;;;;;;6.87;4.00;;;9.10;99.90;;;9.81;100.00;98906.41;4926870;29;20558;-80
2023/05/17 06:13:49;;;;;;;7.67;4.03;;;9.10;99.90;;;9.81;100.00;98907.22;4925945;29;20479;-80
2023/05/17 06:16:17;;;;;;;7.63;4.43;;;9.10;99.90;;;9.87;100.00;98910.97;4925439;29;20692;-79
2023/05/17 06:18:47;;;;;;;10.50;4.40;;;9.10;99.90;;;9.95;100.00;98911.81;4927226;29;20498;-79
2023/05/17 06:21:18;;;;;;;12.23;4.70;;;9.20;99.90;;;10.02;100.00;98915.44;4926805;29;20459;-78
2023/05/17 06:23:47;;;;;;;17.00;4.70;;;9.30;99.90;;;10.07;100.00;98922.75;4926534;29;20483;-78
2023/05/17 06:26:16;;;;;;;10.30;3.97;;;9.30;99.90;;;10.13;100.00;98926.53;4925977;29;20471;-78
2023/05/17 06:28:44;;;;;;;9.80;4.10;;;9.40;99.90;;;10.15;100.00;98928.03;4926222;29;20553;-78
2023/05/17 06:31:15;;;;;;;10.23;4.27;;;9.60;99.90;;;10.19;100.00;98923.31;4926241;29;20478;-78
2023/05/17 06:33:44;;;;;;;7.63;4.17;;;9.60;99.90;;;10.21;100.00;98927.38;4926393;29;20466;-78
2023/05/17 06:36:14;;;;;;;8.47;3.40;;;9.60;99.90;;;10.23;100.00;98941.13;4926170;29;21056;-78
2023/05/17 06:38:43;;;;;;;12.10;4.60;;;9.60;99.90;;;10.22;100.00;98936.88;4925616;29;20505;-78
2023/05/17 06:41:11;;;;;;;9.50;4.70;;;9.60;99.90;;;10.22;100.00;98944.69;4926783;29;21183;-78
2023/05/17 06:43:40;;;;;;;11.97;4.63;;;9.50;99.90;;;10.23;100.00;98945.53;4927435;29;20711;-78
2023/05/17 06:46:09;;;;;;;14.13;4.70;;;9.60;99.90;;;10.23;100.00;98950.75;4925048;29;20549;-78
2023/05/17 06:48:39;;;;;;;9.93;4.20;;;9.50;99.90;;;10.23;100.00;98951.56;4926164;29;20466;-78
2023/05/17 06:51:08;;;;;;;10.87;5.23;;;9.50;99.90;;;10.23;100.00;98948.97;4924658;29;20760;-79
2023/05/17 06:53:38;;;;;;;6.03;4.00;;;9.50;99.90;;;10.29;100.00;98947.47;4925246;29;20475;-79
2023/05/17 06:56:07;;;;;;;9.33;5.27;;;9.60;99.90;;;10.33;100.00;98954.84;4926590;29;20458;-79
2023/05/17 06:58:35;;;;;;;13.77;4.80;;;9.70;99.90;;;10.38;100.00;98952.53;4925863;29;20506;-79
2023/05/17 07:01:04;;;;;;;24.90;4.37;;;9.70;99.90;;;10.40;100.00;98963.66;4925408;29;20836;-78
2023/05/17 07:03:33;;;;;;;13.60;5.00;;;9.70;99.90;;;10.45;100.00;98948.28;4926215;29;20474;-79
2023/05/17 07:06:04;;;;;;;9.13;4.57;;;9.80;99.90;;;10.50;100.00;98945.19;4925869;29;20501;-79
2023/05/17 07:08:33;;;;;;;9.50;4.90;;;9.80;99.90;;;10.56;100.00;98947.97;4924468;29;20470;-79
2023/05/17 07:11:03;;;;;;;14.07;5.13;;;9.90;99.90;;;10.52;100.00;98946.66;4925566;29;20477;-79
2023/05/17 07:13:31;;;;;;;13.67;5.43;;;10.00;99.90;;;10.52;100.00;98954.50;4927265;29;20554;-78
2023/05/17 07:16:00;;;;;;;9.33;5.07;;;9.90;99.90;;;10.55;100.00;98958.63;4928610;29;21592;-78
2023/05/17 07:18:29;;;;;;;8.47;5.70;;;9.90;99.90;;;10.57;100.00;98952.22;4930531;29;20569;-79
2023/05/17 07:20:57;;;;;;;9.80;5.37;;;9.90;99.90;;;10.59;100.00;98954.66;4929180;29;20549;-79
2023/05/17 07:23:27;;;;;;;10.10;4.50;;;9.90;99.90;;;10.67;100.00;98961.69;4928581;29;20459;-79
2023/05/17 07:25:56;;;;;;;12.77;4.80;;;10.00;99.90;;;10.69;100.00;98955.31;4929821;29;20470;-79
2023/05/17 07:28:25;;;;;;;6.37;4.40;;;10.00;99.90;;;10.74;100.00;98955.63;4929015;29;20499;-79
2023/05/17 07:30:53;;;;;;;15.60;5.33;;;10.00;99.90;;;10.79;100.00;98957.78;4929558;29;20462;-79
2023/05/17 07:33:22;;;;;;;9.03;4.90;;;10.10;99.90;;;10.82;100.00;98960.06;4928881;29;20466;-79
2023/05/17 07:35:53;;;;;;;7.83;4.97;;;10.20;99.90;;;10.85;100.00;98964.94;4928754;29;20477;-79
2023/05/17 07:38:22;;;;;;;15.30;5.10;;;10.20;99.90;;;10.88;100.00;98959.38;4930009;29;20450;-79
2023/05/17 07:40:53;;;;;;;12.03;5.23;;;10.20;99.90;;;10.88;100.00;98949.72;4928719;29;20522;-79
2023/05/17 07:43:22;;;;;;;18.33;5.57;;;10.20;99.90;;;10.93;100.00;98946.63;4930074;29;20477;-78
2023/05/17 07:45:51;;;;;;;8.90;5.30;;;10.20;99.90;;;10.99;100.00;98961.66;4928072;29;20465;-79
2023/05/17 07:48:19;;;;;;;11.90;4.80;;;10.30;99.90;;;11.02;100.00;98954.28;4929710;29;20464;-79
2023/05/17 07:50:48;;;;;;;11.50;4.83;;;10.30;99.90;;;11.08;100.00;98956.22;4929406;29;20509;-79
2023/05/17 07:53:17;;;;;;;12.40;4.33;;;10.40;99.90;;;11.12;100.00;98961.94;4929564;29;20514;-79
2023/05/17 07:55:46;;;;;;;7.80;4.10;;;10.50;99.90;;;11.07;100.00;98953.78;4928749;29;20549;-79
2023/05/17 07:58:19;;;;;;;7.37;4.50;;;10.40;99.90;;;11.08;100.00;98963.25;4928852;29;20474;-79
2023/05/17 08:00:48;;;;;;;16.70;4.47;;;10.40;99.90;;;11.17;100.00;98949.19;4929107;29;20467;-79
2023/05/17 08:03:16;;;;;;;6.70;3.50;;;10.50;99.90;;;11.28;100.00;98948.00;4929487;29;20589;-79
2023/05/17 08:05:45;;;;;;;8.37;3.50;;;10.60;99.90;;;11.35;100.00;98952.38;4927888;29;20728;-79
2023/05/17 08:08:14;;;;;;;10.83;4.30;;;10.70;99.90;;;11.35;100.00;98947.13;4928632;29;20462;-79
2023/05/17 08:10:43;;;;;;;7.40;3.77;;;10.60;99.90;;;11.38;100.00;98944.19;4927026;29;20966;-78
2023/05/17 08:13:12;;;;;;;11.93;3.83;;;10.70;99.90;;;11.41;100.00;98943.03;4928377;29;20477;-79
2023/05/17 08:15:42;;;;;;;7.83;4.37;;;10.70;99.90;;;11.45;100.00;98957.44;4927849;29;20491;-79
2023/05/17 08:18:10;;;;;;;12.03;4.10;;;10.70;99.90;;;11.51;100.00;98957.56;4929673;29;21040;-79
2023/05/17 08:20:39;;;;;;;6.60;3.73;;;10.80;99.90;;;11.49;100.00;98954.28;4928641;29;20502;-79
2023/05/17 08:23:08;;;;;;;8.50;4.30;;;10.80;99.90;;;11.50;100.00;98955.91;4928020;29;20481;-79
2023/05/17 08:25:36;;;;;;;9.60;3.67;;;10.80;99.90;;;11.53;100.00;98947.72;4927687;29;20967;-79
2023/05/17 08:28:05;;;;;;;8.17;3.43;;;10.90;99.90;;;11.51;100.00;98949.72;4927871;29;20497;-79
2023/05/17 08:30:34;;;;;;;11.43;4.13;;;10.90;99.90;;;11.63;100.00;98941.47;4928591;29;20481;-79
2023/05/17 08:33:04;;;;;;;6.10;3.77;;;11.00;99.90;;;11.64;100.00;98943.91;4928826;29;20505;-79
2023/05/17 08:35:33;;;;;;;8.90;4.17;;;11.00;99.90;;;11.68;100.00;98944.38;4927400;29;20470;-79
2023/05/17 08:38:02;;;;;;;8.17;3.50;;;11.00;99.90;;;11.74;100.00;98941.09;4928594;29;20466;-79
2023/05/17 08:40:30;;;;;;;15.50;4.57;;;11.00;99.90;;;11.68;100.00;98941.75;4927560;29;20502;-79
2023/05/17 08:43:02;;;;;;;6.97;3.80;;;11.00;99.90;;;11.74;100.00;98947.16;4928729;29;20467;-79
2023/05/17 08:45:32;;;;;;;7.90;4.10;;;11.00;99.90;;;11.82;100.00;98948.91;4927791;29;20478;-82
2023/05/17 08:48:02;;;;;;;8.90;3.70;;;11.20;99.90;;;11.79;100.00;98965.00;4929545;29;20498;-79
2023/05/17 08:50:34;;;;;;;10.60;4.93;;;11.10;99.90;;;11.83;100.00;98946.16;4927531;29;20506;-79
2023/05/17 08:53:04;;;;;;;8.50;4.10;;;11.20;99.90;;;11.90;100.00;98946.25;4928076;29;20462;-79
2023/05/17 08:55:34;;;;;;;8.87;4.20;;;11.20;99.90;;;11.94;100.00;98947.56;4928666;29;20973;-79
2023/05/17 08:58:05;;;;;;;10.23;4.33;;;11.20;99.90;;;11.95;100.00;98954.41;4928239;29;20498;-79
2023/05/17 09:00:35;;;;;;;14.90;4.43;;;11.30;99.90;;;12.03;100.00;98952.56;4928674;29;20509;-79
2023/05/17 09:03:04;;;;;;;9.53;4.37;;;11.40;99.90;;;12.06;100.00;98946.16;4927166;29;20470;-79
2023/05/17 09:05:36;;;;;;;9.70;5.13;;;11.40;99.90;;;12.09;100.00;98940.56;4926548;29;20467;-79
2023/05/17 09:08:06;;;;;;;8.90;4.70;;;11.50;99.90;;;12.18;100.00;98947.41;4927599;29;20474;-79
2023/05/17 09:10:35;;;;;;;7.43;4.17;;;11.50;99.90;;;12.23;100.00;98950.28;4926575;29;20854;-79
2023/05/17 09:13:03;;;;;;;10.33;4.47;;;11.60;99.90;;;12.24;100.00;98938.00;4927960;29;20493;-79
2023/05/17 09:15:33;;;;;;;8.90;3.97;;;11.60;99.90;;;12.33;100.00;98942.19;4926615;29;20509;-79
2023/05/17 09:18:01;;;;;;;11.40;5.07;;;11.70;99.90;;;12.37;100.00;98939.03;4927738;29;20471;-80
2023/05/17 09:20:33;;;;;;;10.70;5.00;;;11.80;99.90;;;12.35;99.83;98946.28;4926693;29;20505;-79
2023/05/17 09:23:04;;;;;;;9.30;4.23;;;11.80;99.90;;;12.42;100.00;98941.97;4927068;29;20466;-80
2023/05/17 09:25:33;;;;;;;10.20;4.43;;;11.80;99.90;;;12.44;100.00;98934.72;4910911;29;20478;-79
2023/05/17 09:28:03;;;;;;;16.47;5.37;;;11.90;99.90;;;12.46;100.00;98934.56;4926986;29;20493;-80
2023/05/17 09:30:36;;;;;;;5.57;4.07;;;11.80;99.90;;;12.57;100.00;98934.94;4927230;29;20478;-79
2023/05/17 09:33:10;;;;;;;10.30;5.00;;;12.00;99.90;;;12.60;100.00;98939.81;4927657;29;20577;-79
2023/05/17 09:35:43;;;;;;;15.97;5.60;;;12.00;99.90;;;12.59;100.00;98935.59;4928026;29;20461;-79
2023/05/17 09:38:14;;;;;;;13.07;6.03;;;11.90;99.90;;;12.63;100.00;98948.34;4925243;29;20467;-78
2023/05/17 09:40:45;;;;;;;8.43;5.87;;;11.90;99.90;;;12.68;100.00;98936.31;4926859;29;20557;-79
2023/05/17 09:43:24;;;;;;;13.53;5.73;;;12.00;99.90;;;12.74;100.00;98929.56;4925822;29;20533;-79
2023/05/17 09:45:57;;;;;;;10.50;6.10;;;12.00;99.90;;;12.78;100.00;98933.41;4927942;29;20981;-79
2023/05/17 09:48:27;;;;;;;7.83;4.40;;;12.10;99.90;;;12.71;99.92;98938.56;4927945;29;20477;-79
2023/05/17 09:50:56;;;;;;;12.37;6.10;;;12.00;99.90;;;12.74;100.00;98945.28;4925769;29;20883;-79
2023/05/17 09:53:29;;;;;;;9.97;6.10;;;12.10;99.90;;;12.74;100.00;98951.34;4925451;29;20468;-80
2023/05/17 09:55:59;;;;;;;8.03;6.00;;;12.10;99.90;;;12.78;100.00;98957.03;4926509;29;20526;-79
2023/05/17 09:58:32;;;;;;;11.80;6.03;;;12.10;99.90;;;12.82;100.00;98947.81;4927902;29;20482;-79
2023/05/17 10:01:03;;;;;;;15.97;5.90;;;12.20;99.90;;;12.79;100.00;98953.44;4927531;29;20524;-79
2023/05/17 10:03:36;;;;;;;9.00;5.90;;;12.10;99.90;;;12.81;99.07;98943.56;4925861;29;20485;-79
2023/05/17 10:06:08;;;;;;;8.53;6.03;;;12.10;99.90;;;12.86;98.76;98946.47;4925673;29;20565;-80
2023/05/17 10:08:57;;;;;;;12.00;6.20;;;12.30;99.90;;;12.90;99.45;98945.13;4927016;29;20932;-79
2023/05/17 10:11:33;;;;;;;8.30;4.80;;;12.30;99.90;;;12.82;96.44;98951.25;4926805;29;20521;-79
2023/05/17 10:14:11;;;;;;;11.13;5.20;;;12.30;99.90;;;12.76;93.77;98940.66;4926149;29;20476;-79
2023/05/17 10:16:41;;;;;;;8.50;3.97;;;12.20;99.90;;;12.78;92.18;98946.53;4926772;29;20466;-80
2023/05/17 10:19:12;;;;;;;9.27;5.30;;;12.30;99.90;;;12.69;90.99;98937.13;4927134;29;20498;-79
2023/05/17 10:21:42;;;;;;;10.63;4.93;;;12.10;99.90;;;12.78;91.21;98936.03;4926365;29;20509;-79
2023/05/17 10:24:13;;;;;;;20.60;4.77;;;12.20;99.90;;;12.85;91.75;98929.09;4925507;29;20470;-79
2023/05/17 10:26:43;;;;;;;8.10;3.90;;;12.30;99.90;;;12.91;89.23;98920.50;4926538;29;20921;-79
2023/05/17 10:29:11;;;;;;;8.03;4.40;;;12.40;99.90;;;12.89;84.70;98915.44;4924561;29;20897;-79